Time;durP1;ratioP1;P1;durP2;ratioP2;P2;SDS_P1;SDS_P2;PMS_P1;PMS_P2;Temp;Humidity;BMP_temperature;BMP_pressure;BME280_temperature;BME280_humidity;BME280_pressure;Samples;Min_cycle;Max_cycle;Signal;HPM_P1;HPM_P2
2021/12/18 00:00:59;;;;;;;1733.50;519.30;;;;;;;;;;5017249;28;20033;-81
2021/12/18 00:03:25;;;;;;;609.13;410.90;;;;;;;;;;4984813;28;20033;-81
2021/12/18 00:05:51;;;;;;;1252.50;488.63;;;;;;;;;;5000730;28;20041;-81
2021/12/18 00:08:17;;;;;;;1422.32;454.02;;;;;;;;;;5016648;28;20458;-81
2021/12/18 00:10:45;;;;;;;1122.30;401.77;;;;;;;;;;5016946;28;20041;-81
2021/12/18 00:13:11;;;;;;;1755.85;575.42;;;;;;;;;;5001041;28;20037;-81
2021/12/18 00:15:36;;;;;;;1064.22;438.63;;;;;;;;;;5016355;28;20041;-81
2021/12/18 00:18:02;;;;;;;1439.78;475.65;;;;;;;;;;5016694;28;20091;-81
2021/12/18 00:20:28;;;;;;;982.25;449.63;;;;;;;;;;4999936;28;20108;-80
2021/12/18 00:22:54;;;;;;;1418.38;532.53;;;;;;;;;;5016401;28;20041;-81
2021/12/18 00:25:19;;;;;;;694.85;391.92;;;;;;;;;;5000323;28;20041;-81
2021/12/18 00:27:45;;;;;;;1368.05;491.75;;;;;;;;;;4999332;28;20044;-81
2021/12/18 00:30:11;;;;;;;1760.55;503.27;;;;;;;;;;5036775;28;20380;-81
2021/12/18 00:32:36;;;;;;;573.28;373.88;;;;;;;;;;5034501;28;20120;-82
2021/12/18 00:35:02;;;;;;;1195.25;355.42;;;;;;;;;;5036788;28;20043;-81
2021/12/18 00:37:28;;;;;;;1460.95;465.45;;;;;;;;;;5002936;28;20136;-81
2021/12/18 00:39:58;;;;;;;1599.40;599.83;;;;;;;;;;5036347;28;20372;-80
2021/12/18 00:42:46;;;;;;;1667.65;471.35;;;;;;;;;;5005075;28;20033;-80
2021/12/18 00:45:14;;;;;;;864.67;422.35;;;;;;;;;;5039077;28;20036;-81
2021/12/18 00:47:40;;;;;;;1095.13;355.33;;;;;;;;;;5019798;28;20111;-80
2021/12/18 00:50:07;;;;;;;1903.65;579.08;;;;;;;;;;5019740;28;20045;-81
2021/12/18 00:52:32;;;;;;;763.42;354.75;;;;;;;;;;5015661;28;20038;-81
2021/12/18 00:54:58;;;;;;;1696.03;629.92;;;;;;;;;;5016206;28;20033;-81
2021/12/18 00:57:24;;;;;;;1681.25;467.88;;;;;;;;;;5000006;28;20068;-81
2021/12/18 00:59:52;;;;;;;1744.88;435.80;;;;;;;;;;5000329;28;20041;-81
2021/12/18 01:02:19;;;;;;;1654.15;567.72;;;;;;;;;;4984602;28;20036;-81
2021/12/18 01:04:44;;;;;;;1316.28;483.02;;;;;;;;;;5015844;28;20060;-81
2021/12/18 01:07:10;;;;;;;1055.70;522.15;;;;;;;;;;5015079;28;20407;-80
2021/12/18 01:09:52;;;;;;;913.42;434.40;;;;;;;;;;4999593;28;20034;-81
2021/12/18 01:12:18;;;;;;;1807.05;597.17;;;;;;;;;;5018046;28;20394;-81
2021/12/18 01:22:47;;;;;;;946.83;425.23;;;;;;;;;;5021130;28;20037;-81
2021/12/18 01:25:14;;;;;;;1752.68;490.58;;;;;;;;;;5018640;28;20565;-81
2021/12/18 01:27:40;;;;;;;845.03;427.85;;;;;;;;;;5015662;28;20033;-81
2021/12/18 01:30:07;;;;;;;1999.90;576.30;;;;;;;;;;5034992;28;20032;-81
2021/12/18 01:32:32;;;;;;;667.00;437.85;;;;;;;;;;5001026;28;20361;-81
2021/12/18 01:34:58;;;;;;;1370.53;513.53;;;;;;;;;;5016099;28;20093;-81
2021/12/18 01:37:24;;;;;;;1236.78;460.70;;;;;;;;;;5035337;28;20048;-81
2021/12/18 01:39:52;;;;;;;1243.78;527.10;;;;;;;;;;5034204;28;20079;-81
2021/12/18 01:45:02;;;;;;;1443.53;444.75;;;;;;;;;;5022279;28;20048;-81
2021/12/18 01:52:56;;;;;;;1375.93;562.28;;;;;;;;;;5031745;28;20033;-81
2021/12/18 01:55:27;;;;;;;1437.78;578.80;;;;;;;;;;5031603;28;20052;-81
2021/12/18 01:57:52;;;;;;;1333.53;521.15;;;;;;;;;;5031208;28;20403;-81
2021/12/18 02:00:23;;;;;;;1035.05;432.73;;;;;;;;;;5014800;28;20076;-81
2021/12/18 02:02:49;;;;;;;1290.90;479.20;;;;;;;;;;5012233;28;20499;-81
2021/12/18 02:05:14;;;;;;;1250.72;497.48;;;;;;;;;;5014887;28;20069;-81
2021/12/18 02:07:40;;;;;;;1942.60;665.78;;;;;;;;;;5031127;28;20029;-81
2021/12/18 02:10:10;;;;;;;1526.85;462.38;;;;;;;;;;5014674;28;20045;-81
2021/12/18 02:13:02;;;;;;;1268.07;491.95;;;;;;;;;;4999306;28;20034;-80
2021/12/18 02:21:17;;;;;;;767.38;410.27;;;;;;;;;;5050491;28;20498;-80
2021/12/18 02:23:43;;;;;;;1582.43;511.23;;;;;;;;;;5020029;28;20086;-81
2021/12/18 02:26:09;;;;;;;1581.30;517.63;;;;;;;;;;5001375;28;20040;-81
2021/12/18 02:28:34;;;;;;;1807.10;538.60;;;;;;;;;;5033845;28;20402;-81
2021/12/18 02:31:00;;;;;;;1105.20;569.65;;;;;;;;;;5013923;28;20892;-81
2021/12/18 02:33:26;;;;;;;1420.80;521.28;;;;;;;;;;4998187;28;20029;-81
2021/12/18 02:35:54;;;;;;;698.00;388.10;;;;;;;;;;4998161;28;20045;-81
2021/12/18 02:38:29;;;;;;;1519.65;581.13;;;;;;;;;;5014333;28;20087;-80
2021/12/18 02:41:08;;;;;;;1511.93;455.92;;;;;;;;;;5014904;28;20037;-81
2021/12/18 02:43:36;;;;;;;1170.63;462.35;;;;;;;;;;5002142;28;20052;-81
2021/12/18 02:46:06;;;;;;;1999.90;613.30;;;;;;;;;;5017182;28;20049;-81
2021/12/18 02:48:33;;;;;;;731.22;417.25;;;;;;;;;;5018740;28;20037;-81
2021/12/18 02:50:59;;;;;;;1382.90;622.13;;;;;;;;;;5008822;28;20094;-80
2021/12/18 02:53:25;;;;;;;1631.93;568.17;;;;;;;;;;5013962;28;20037;-80
2021/12/18 02:55:58;;;;;;;859.38;355.30;;;;;;;;;;5013952;28;20041;-81
2021/12/18 02:58:24;;;;;;;1591.88;591.13;;;;;;;;;;5008527;28;20040;-80
2021/12/18 03:00:50;;;;;;;1999.90;699.95;;;;;;;;;;5012856;28;20056;-81
2021/12/18 03:03:16;;;;;;;1999.90;472.23;;;;;;;;;;5014200;28;20551;-81
2021/12/18 03:05:57;;;;;;;1989.85;567.10;;;;;;;;;;5030391;28;20029;-80
2021/12/18 03:08:36;;;;;;;1944.15;649.97;;;;;;;;;;4999714;28;20026;-81
2021/12/18 03:27:07;;;;;;;674.88;456.23;;;;;;;;;;5019556;28;20041;-80
2021/12/18 03:29:32;;;;;;;1518.45;552.45;;;;;;;;;;5018739;28;20036;-81
2021/12/18 03:31:58;;;;;;;1527.95;445.40;;;;;;;;;;5020480;28;20387;-80
2021/12/18 03:34:23;;;;;;;1873.15;749.88;;;;;;;;;;5030066;28;20037;-80
2021/12/18 03:36:51;;;;;;;968.95;523.92;;;;;;;;;;5030218;28;20033;-81
2021/12/18 03:39:16;;;;;;;1920.10;686.78;;;;;;;;;;4997918;28;20403;-81
2021/12/18 03:41:42;;;;;;;1313.63;446.20;;;;;;;;;;5035045;28;20029;-81
2021/12/18 03:44:08;;;;;;;1786.07;548.15;;;;;;;;;;5035132;28;20043;-81
2021/12/18 03:46:33;;;;;;;528.25;342.85;;;;;;;;;;5013573;28;20563;-81
2021/12/18 03:48:59;;;;;;;1230.88;544.95;;;;;;;;;;5013247;28;20052;-81
2021/12/18 03:51:25;;;;;;;1495.03;565.05;;;;;;;;;;4997158;28;20033;-80
2021/12/18 03:53:50;;;;;;;1999.90;751.53;;;;;;;;;;5029832;28;20120;-80
2021/12/18 03:56:17;;;;;;;546.15;381.77;;;;;;;;;;5046237;28;20048;-81
2021/12/18 03:58:43;;;;;;;1318.03;543.45;;;;;;;;;;5045606;28;20033;-81
2021/12/18 04:01:09;;;;;;;1824.03;652.78;;;;;;;;;;5033816;28;20514;-80
2021/12/18 04:03:35;;;;;;;1414.47;490.35;;;;;;;;;;5036743;28;20485;-81
2021/12/18 04:06:00;;;;;;;1237.07;604.38;;;;;;;;;;5004399;28;20035;-80
2021/12/18 04:08:26;;;;;;;1829.72;577.85;;;;;;;;;;5016289;28;20033;-81
2021/12/18 04:10:52;;;;;;;1666.65;574.90;;;;;;;;;;5033174;28;20049;-81
2021/12/18 04:13:17;;;;;;;1258.40;618.83;;;;;;;;;;5016820;28;20072;-81
2021/12/18 04:15:43;;;;;;;1209.88;578.08;;;;;;;;;;5016858;28;20107;-81
2021/12/18 04:18:08;;;;;;;1970.18;571.20;;;;;;;;;;5018913;28;20112;-81
2021/12/18 04:20:34;;;;;;;1999.90;775.00;;;;;;;;;;5001551;28;20041;-81
2021/12/18 04:23:00;;;;;;;1560.95;525.53;;;;;;;;;;5016889;28;20049;-80
2021/12/18 04:25:25;;;;;;;1019.47;438.40;;;;;;;;;;4999978;28;20033;-80
2021/12/18 04:27:51;;;;;;;1971.57;701.05;;;;;;;;;;4999714;28;20033;-80
2021/12/18 04:30:18;;;;;;;1395.88;481.30;;;;;;;;;;5036171;28;20032;-80
2021/12/18 04:32:44;;;;;;;1538.95;568.45;;;;;;;;;;5017199;28;20060;-80
2021/12/18 04:35:09;;;;;;;1644.10;524.60;;;;;;;;;;5002193;28;20495;-80
2021/12/18 04:37:35;;;;;;;1917.78;724.42;;;;;;;;;;5016647;28;20033;-80
2021/12/18 04:40:00;;;;;;;852.85;517.10;;;;;;;;;;5017877;28;20038;-81
2021/12/18 04:42:27;;;;;;;1999.90;652.42;;;;;;;;;;5000025;28;20057;-80
2021/12/18 04:44:52;;;;;;;1232.50;548.63;;;;;;;;;;5044085;28;20055;-80
2021/12/18 04:47:18;;;;;;;974.55;530.53;;;;;;;;;;5036340;28;20044;-80
2021/12/18 04:49:43;;;;;;;1064.53;514.00;;;;;;;;;;5006059;28;20467;-80
2021/12/18 04:52:09;;;;;;;1999.90;634.50;;;;;;;;;;5016292;28;20041;-81
2021/12/18 04:54:35;;;;;;;626.92;468.33;;;;;;;;;;5015803;28;20029;-80
2021/12/18 04:57:00;;;;;;;1890.20;671.50;;;;;;;;;;5032831;28;20060;-81
2021/12/18 04:59:26;;;;;;;1231.43;517.25;;;;;;;;;;5016158;28;20038;-80
2021/12/18 05:01:52;;;;;;;1031.50;555.72;;;;;;;;;;4999645;28;20041;-81
2021/12/18 05:04:18;;;;;;;1292.85;551.13;;;;;;;;;;5016103;28;20027;-80
2021/12/18 05:06:46;;;;;;;1126.30;575.70;;;;;;;;;;4999501;28;20029;-80
2021/12/18 05:09:12;;;;;;;1827.35;481.60;;;;;;;;;;5023477;28;20479;-81
2021/12/18 05:11:38;;;;;;;1976.65;545.60;;;;;;;;;;5035352;28;20044;-81
2021/12/18 05:14:04;;;;;;;1297.88;633.75;;;;;;;;;;5003902;28;20037;-80
2021/12/18 05:16:29;;;;;;;725.05;482.17;;;;;;;;;;5006933;28;20045;-81
2021/12/18 05:18:55;;;;;;;1075.30;527.03;;;;;;;;;;5031392;28;20073;-80
2021/12/18 05:21:21;;;;;;;1527.47;444.55;;;;;;;;;;5031979;28;20029;-79
2021/12/18 05:23:46;;;;;;;1711.03;673.25;;;;;;;;;;5032035;28;20033;-81
2021/12/18 05:26:12;;;;;;;1335.47;576.20;;;;;;;;;;5032112;28;20038;-81
2021/12/18 05:28:37;;;;;;;1061.85;547.38;;;;;;;;;;5015380;28;20438;-81
2021/12/18 05:31:03;;;;;;;1308.72;572.03;;;;;;;;;;5010111;28;20041;-81
2021/12/18 05:33:29;;;;;;;725.38;480.95;;;;;;;;;;4999179;28;20040;-80
2021/12/18 05:35:55;;;;;;;1212.80;599.08;;;;;;;;;;5016350;28;20103;-80
2021/12/18 05:38:20;;;;;;;831.55;496.33;;;;;;;;;;5026142;28;20040;-80
2021/12/18 05:40:46;;;;;;;1451.88;626.22;;;;;;;;;;5015188;28;20043;-81
2021/12/18 05:43:11;;;;;;;1225.03;609.25;;;;;;;;;;5027793;28;20029;-80
2021/12/18 05:45:37;;;;;;;1960.03;598.28;;;;;;;;;;5015002;28;20045;-80
2021/12/18 05:48:03;;;;;;;1727.53;714.67;;;;;;;;;;5009349;28;20104;-80
2021/12/18 05:50:29;;;;;;;786.05;504.58;;;;;;;;;;4998905;28;20030;-81
2021/12/18 05:52:56;;;;;;;1547.80;631.20;;;;;;;;;;4984136;28;20037;-80
2021/12/18 05:55:24;;;;;;;1999.90;694.95;;;;;;;;;;4999622;28;20468;-80
2021/12/18 05:57:49;;;;;;;947.25;569.08;;;;;;;;;;5027085;28;20037;-82
2021/12/18 06:00:15;;;;;;;1299.88;620.30;;;;;;;;;;5033301;28;20763;-82
2021/12/18 06:02:41;;;;;;;1670.72;581.65;;;;;;;;;;5010413;28;20041;-81
2021/12/18 06:05:07;;;;;;;1117.10;584.75;;;;;;;;;;5018164;28;20086;-82
2021/12/18 06:07:54;;;;;;;1999.90;679.47;;;;;;;;;;5017933;28;20086;-82
2021/12/18 06:10:21;;;;;;;1551.30;553.72;;;;;;;;;;5036910;28;20033;-83
2021/12/18 06:12:47;;;;;;;813.53;504.08;;;;;;;;;;5011542;28;20568;-83
2021/12/18 06:15:12;;;;;;;1172.88;518.78;;;;;;;;;;4995116;28;20037;-83
2021/12/18 06:17:39;;;;;;;728.28;506.58;;;;;;;;;;4995796;28;20397;-81
2021/12/18 06:20:05;;;;;;;806.58;487.08;;;;;;;;;;4998245;28;20042;-81
2021/12/18 06:22:31;;;;;;;842.63;567.58;;;;;;;;;;4997722;28;20043;-83
2021/12/18 06:24:57;;;;;;;1321.82;544.67;;;;;;;;;;4999077;28;20049;-83
2021/12/18 06:27:22;;;;;;;1082.28;515.72;;;;;;;;;;5033775;28;20119;-83
2021/12/18 06:29:49;;;;;;;1444.53;663.80;;;;;;;;;;5027287;28;20033;-83
2021/12/18 06:32:14;;;;;;;1674.05;576.05;;;;;;;;;;5029673;28;20032;-82
2021/12/18 06:34:40;;;;;;;900.47;522.72;;;;;;;;;;5017192;28;20048;-83
2021/12/18 06:37:06;;;;;;;1541.57;467.20;;;;;;;;;;5017954;28;20124;-79
2021/12/18 06:39:31;;;;;;;1003.35;565.60;;;;;;;;;;5017654;28;20035;-81
2021/12/18 06:41:57;;;;;;;1097.05;581.33;;;;;;;;;;4999566;28;20093;-82
2021/12/18 06:44:23;;;;;;;1571.90;603.25;;;;;;;;;;5002107;28;20038;-83
2021/12/18 06:46:48;;;;;;;1539.40;616.03;;;;;;;;;;5013999;28;20041;-83
2021/12/18 06:49:14;;;;;;;985.47;549.10;;;;;;;;;;4999618;28;20037;-83
2021/12/18 06:51:40;;;;;;;1593.90;681.97;;;;;;;;;;5016319;28;20564;-81
2021/12/18 06:54:05;;;;;;;1892.63;626.88;;;;;;;;;;5001593;28;20037;-80
2021/12/18 06:56:31;;;;;;;692.97;465.63;;;;;;;;;;5000898;28;20053;-80
2021/12/18 06:58:57;;;;;;;1863.28;587.88;;;;;;;;;;5017517;28;20037;-81
2021/12/18 07:01:24;;;;;;;1326.65;573.10;;;;;;;;;;5017482;28;20033;-84
2021/12/18 07:03:49;;;;;;;1999.90;728.70;;;;;;;;;;5017878;28;20040;-84
2021/12/18 07:06:15;;;;;;;1806.32;540.90;;;;;;;;;;5011847;28;20041;-84
2021/12/18 07:08:42;;;;;;;1970.38;576.60;;;;;;;;;;5014106;28;20034;-84
2021/12/18 07:11:08;;;;;;;1999.90;601.13;;;;;;;;;;5005562;28;20037;-88
2021/12/18 07:13:34;;;;;;;1787.55;453.27;;;;;;;;;;4998105;28;20032;-86
2021/12/18 07:16:00;;;;;;;1841.90;661.00;;;;;;;;;;4998042;28;20041;-85
2021/12/18 07:18:27;;;;;;;1512.82;443.73;;;;;;;;;;5013984;28;20042;-85
2021/12/18 07:20:54;;;;;;;1999.90;632.10;;;;;;;;;;4998134;28;20442;-85
2021/12/18 07:23:21;;;;;;;1595.00;450.85;;;;;;;;;;4998093;28;20402;-85
2021/12/18 07:25:47;;;;;;;1720.07;455.58;;;;;;;;;;5014295;28;20033;-84
2021/12/18 07:28:12;;;;;;;1999.90;531.35;;;;;;;;;;5014430;28;20459;-86
2021/12/18 07:30:39;;;;;;;1973.78;470.75;;;;;;;;;;4999654;28;20036;-86
2021/12/18 07:33:10;;;;;;;1841.72;557.03;;;;;;;;;;5017645;28;20498;-86
2021/12/18 07:35:40;;;;;;;1755.38;501.73;;;;;;;;;;5018875;28;20089;-86
2021/12/18 07:38:05;;;;;;;1718.85;438.05;;;;;;;;;;5005340;28;20033;-85
2021/12/18 07:40:32;;;;;;;1366.93;392.77;;;;;;;;;;5037938;28;20052;-85
2021/12/18 07:42:59;;;;;;;1528.90;455.63;;;;;;;;;;5021579;28;20041;-85
2021/12/18 07:45:25;;;;;;;1822.60;533.40;;;;;;;;;;5013795;28;20435;-85
2021/12/18 07:47:51;;;;;;;1751.47;495.33;;;;;;;;;;5017742;28;20107;-85
2021/12/18 07:50:20;;;;;;;1768.70;407.80;;;;;;;;;;4985288;28;20037;-85
2021/12/18 07:52:46;;;;;;;860.83;365.75;;;;;;;;;;5017697;28;20037;-85
2021/12/18 07:55:13;;;;;;;1770.97;504.73;;;;;;;;;;5001315;28;20091;-85
2021/12/18 07:57:40;;;;;;;1233.45;380.25;;;;;;;;;;5000744;28;20522;-84
2021/12/18 08:00:08;;;;;;;1904.97;538.97;;;;;;;;;;5017343;28;20056;-84
2021/12/18 08:02:34;;;;;;;1318.53;338.58;;;;;;;;;;5032847;28;20033;-85
2021/12/18 08:05:02;;;;;;;1267.30;415.60;;;;;;;;;;5034094;28;20539;-86
2021/12/18 08:07:28;;;;;;;1220.43;500.65;;;;;;;;;;5033827;28;20102;-86
2021/12/18 08:09:55;;;;;;;1470.20;495.15;;;;;;;;;;5034016;28;20109;-86
2021/12/18 08:12:21;;;;;;;1473.80;319.08;;;;;;;;;;5034082;28;20047;-85
2021/12/18 08:14:47;;;;;;;1433.65;508.67;;;;;;;;;;4984504;28;20369;-85
2021/12/18 08:17:12;;;;;;;1318.10;416.38;;;;;;;;;;5000592;28;20091;-85
2021/12/18 08:19:38;;;;;;;1726.15;551.67;;;;;;;;;;5023276;28;20044;-85
2021/12/18 08:22:04;;;;;;;1529.75;492.63;;;;;;;;;;5020588;28;20087;-86
2021/12/18 08:24:29;;;;;;;1953.40;556.20;;;;;;;;;;5036974;28;20029;-85
2021/12/18 08:26:57;;;;;;;1999.90;657.75;;;;;;;;;;5036698;28;20063;-85
2021/12/18 08:29:24;;;;;;;942.45;303.33;;;;;;;;;;5020282;28;20386;-85
2021/12/18 08:31:51;;;;;;;1038.80;325.23;;;;;;;;;;5016358;28;20369;-85
2021/12/18 08:34:19;;;;;;;1991.32;538.67;;;;;;;;;;5017517;28;20029;-84
2021/12/18 08:36:45;;;;;;;1352.55;499.23;;;;;;;;;;5017050;28;20029;-85
2021/12/18 08:39:11;;;;;;;1434.47;371.30;;;;;;;;;;5016951;28;20144;-85
2021/12/18 08:41:38;;;;;;;787.38;282.50;;;;;;;;;;5000407;28;20060;-85
2021/12/18 08:44:04;;;;;;;952.10;363.23;;;;;;;;;;5016883;28;20044;-85
2021/12/18 08:46:31;;;;;;;1045.68;302.70;;;;;;;;;;4999740;28;20059;-85
2021/12/18 08:48:57;;;;;;;1637.45;394.00;;;;;;;;;;4999010;28;20048;-84
2021/12/18 08:51:23;;;;;;;1482.78;454.65;;;;;;;;;;5000287;28;20041;-86
2021/12/18 08:53:50;;;;;;;1999.90;549.33;;;;;;;;;;5000545;28;20025;-84
2021/12/18 08:56:15;;;;;;;1756.95;462.10;;;;;;;;;;5004087;28;20506;-85
2021/12/18 08:58:41;;;;;;;1613.28;537.67;;;;;;;;;;5016532;28;20033;-84
2021/12/18 09:01:07;;;;;;;1784.88;623.00;;;;;;;;;;5015768;28;20080;-82
2021/12/18 09:03:33;;;;;;;1452.45;584.47;;;;;;;;;;5015962;28;20044;-84
2021/12/18 09:05:58;;;;;;;1224.57;516.28;;;;;;;;;;5003075;28;20048;-82
2021/12/18 09:08:24;;;;;;;969.20;401.67;;;;;;;;;;5019219;28;20028;-81
2021/12/18 09:10:49;;;;;;;1589.63;588.20;;;;;;;;;;5019092;28;20047;-82
2021/12/18 09:13:15;;;;;;;1941.03;544.92;;;;;;;;;;5019305;28;20067;-82
2021/12/18 09:15:41;;;;;;;807.63;433.85;;;;;;;;;;5034902;28;20045;-82
2021/12/18 09:18:06;;;;;;;1560.88;504.98;;;;;;;;;;5018290;28;20045;-83
2021/12/18 09:20:36;;;;;;;1008.42;411.40;;;;;;;;;;5019842;28;20040;-83
2021/12/18 09:23:35;;;;;;;1144.93;371.40;;;;;;;;;;5007571;28;20033;-84
2021/12/18 09:26:43;;;;;;;1999.90;675.60;;;;;;;;;;5039715;28;20510;-83
2021/12/18 09:29:20;;;;;;;1520.88;573.50;;;;;;;;;;5020425;28;20114;-85
2021/12/18 09:31:49;;;;;;;1271.40;469.77;;;;;;;;;;4998858;23;20038;-85
2021/12/18 09:34:14;;;;;;;1999.90;686.90;;;;;;;;;;4972619;28;20086;-86
2021/12/18 09:36:40;;;;;;;1169.45;495.05;;;;;;;;;;4956100;28;20030;-84
2021/12/18 09:39:05;;;;;;;1668.10;492.35;;;;;;;;;;4956383;28;20038;-84
2021/12/18 09:41:31;;;;;;;874.55;471.67;;;;;;;;;;4953914;28;20035;-84
2021/12/18 09:43:57;;;;;;;1060.32;491.58;;;;;;;;;;4972614;28;20392;-84
2021/12/18 09:46:22;;;;;;;1095.50;547.05;;;;;;;;;;4945094;29;20031;-83
2021/12/18 09:48:48;;;;;;;855.40;491.77;;;;;;;;;;4956640;28;20041;-84
2021/12/18 09:51:23;;;;;;;712.10;418.77;;;;;;;;;;4988513;28;20031;-84
2021/12/18 09:53:50;;;;;;;1590.55;635.78;;;;;;;;;;4986303;28;20048;-84
2021/12/18 09:56:15;;;;;;;1445.90;476.85;;;;;;;;;;4987792;28;20042;-84
2021/12/18 09:58:41;;;;;;;1421.63;547.60;;;;;;;;;;4971834;28;20050;-84
2021/12/18 10:01:06;;;;;;;813.50;449.13;;;;;;;;;;4972030;28;20626;-84
2021/12/18 10:03:45;;;;;;;940.15;503.15;;;;;;;;;;4988320;28;20074;-84
2021/12/18 10:06:43;;;;;;;1251.18;492.55;;;;;;;;;;4971435;28;20030;-84
2021/12/18 10:09:13;;;;;;;962.15;499.33;;;;;;;;;;4982864;28;20041;-85
2021/12/18 10:11:50;;;;;;;1178.45;480.35;;;;;;;;;;4964283;28;20041;-85
2021/12/18 10:14:16;;;;;;;1078.03;482.45;;;;;;;;;;4956021;28;20038;-84
2021/12/18 10:16:46;;;;;;;1292.82;498.40;;;;;;;;;;4970620;28;20053;-85
2021/12/18 10:19:28;;;;;;;1221.00;413.20;;;;;;;;;;4972477;28;20042;-84
2021/12/18 10:21:57;;;;;;;1197.50;481.67;;;;;;;;;;4970610;28;20043;-84
2021/12/18 10:24:23;;;;;;;1309.82;489.77;;;;;;;;;;4943068;29;20049;-84
2021/12/18 10:26:49;;;;;;;1502.78;539.40;;;;;;;;;;4953489;28;20109;-83
2021/12/18 10:29:28;;;;;;;1139.13;394.73;;;;;;;;;;4969005;28;20482;-84
2021/12/18 10:31:54;;;;;;;1619.22;595.90;;;;;;;;;;4964402;28;20086;-84
2021/12/18 10:34:24;;;;;;;1538.18;608.40;;;;;;;;;;4955549;28;20050;-85
2021/12/18 10:37:09;;;;;;;1371.07;500.70;;;;;;;;;;4951237;28;20116;-83
2021/12/18 10:39:35;;;;;;;710.50;355.10;;;;;;;;;;4951385;29;20486;-84
2021/12/18 10:42:21;;;;;;;976.40;292.17;;;;;;;;;;4969087;28;20521;-83
2021/12/18 10:45:03;;;;;;;1908.57;505.88;;;;;;;;;;4986550;28;20047;-84
2021/12/18 10:48:04;;;;;;;1508.45;405.10;;;;;;;;;;4955714;28;20043;-85
2021/12/18 10:50:34;;;;;;;1774.63;481.80;;;;;;;;;;4960770;28;20047;-84
2021/12/18 10:52:59;;;;;;;1458.05;450.17;;;;;;;;;;4967914;28;20035;-84
2021/12/18 10:55:53;;;;;;;1982.15;577.00;;;;;;;;;;4955707;28;20038;-84
2021/12/18 10:58:31;;;;;;;1081.53;476.05;;;;;;;;;;4952620;28;20502;-83
2021/12/18 11:01:01;;;;;;;1518.68;438.17;;;;;;;;;;4948796;29;20049;-84
2021/12/18 11:03:33;;;;;;;1354.32;451.10;;;;;;;;;;4956369;28;20057;-83
2021/12/18 11:06:18;;;;;;;1076.75;389.77;;;;;;;;;;4955430;28;20038;-83
2021/12/18 11:09:06;;;;;;;1673.20;512.70;;;;;;;;;;4954300;28;20051;-83
2021/12/18 11:14:10;;;;;;;1558.75;486.73;;;;;;;;;;4964139;28;20031;-82
2021/12/18 11:16:36;;;;;;;1348.30;447.10;;;;;;;;;;4975585;28;20035;-85
2021/12/18 11:19:06;;;;;;;908.47;392.85;;;;;;;;;;4945256;29;20043;-83
2021/12/18 11:21:32;;;;;;;1730.13;423.88;;;;;;;;;;4936175;29;20465;-83
2021/12/18 11:24:04;;;;;;;1841.68;722.50;;;;;;;;;;4973444;28;20045;-82
2021/12/18 11:27:01;;;;;;;1386.85;394.92;;;;;;;;;;4936095;29;20035;-80
2021/12/18 11:29:47;;;;;;;1051.90;424.00;;;;;;;;;;4960185;28;20047;-82
2021/12/18 11:32:24;;;;;;;1256.85;439.65;;;;;;;;;;4969954;28;20053;-79
2021/12/18 11:34:51;;;;;;;902.00;339.20;;;;;;;;;;4986186;28;20033;-82
2021/12/18 11:37:17;;;;;;;1162.38;386.08;;;;;;;;;;4949932;29;20054;-82
2021/12/18 11:39:44;;;;;;;1122.13;321.75;;;;;;;;;;4920220;29;20518;-83
2021/12/18 11:42:09;;;;;;;804.97;279.65;;;;;;;;;;4926359;28;20489;-84
2021/12/18 11:44:42;;;;;;;1999.90;661.95;;;;;;;;;;4964248;28;20113;-81
2021/12/18 11:47:26;;;;;;;;;;;;;;;;;;4953560;28;20045;-84
2021/12/18 11:49:53;;;;;;;1610.60;556.10;;;;;;;;;;4976597;28;19920;-84
2021/12/18 11:52:19;;;;;;;1035.07;400.85;;;;;;;;;;4953080;28;20042;-84
2021/12/18 11:54:55;;;;;;;1107.72;389.95;;;;;;;;;;4939563;28;20429;-85
2021/12/18 11:57:48;;;;;;;1479.43;379.98;;;;;;;;;;4963731;28;20081;-84
2021/12/18 12:00:22;;;;;;;1350.00;515.15;;;;;;;;;;4965223;28;20564;-85
2021/12/18 12:02:55;;;;;;;1999.90;747.38;;;;;;;;;;4944945;28;20085;-85
2021/12/18 12:05:31;;;;;;;1700.38;629.38;;;;;;;;;;4972226;28;20095;-84
2021/12/18 12:08:35;;;;;;;1491.55;445.60;;;;;;;;;;4974863;28;20396;-84
2021/12/18 12:11:21;;;;;;;1149.38;397.45;;;;;;;;;;4958896;28;20045;-84
2021/12/18 12:13:55;;;;;;;1633.43;539.10;;;;;;;;;;4966935;28;20051;-81
2021/12/18 12:16:45;;;;;;;1201.18;383.98;;;;;;;;;;4977370;28;20039;-84
2021/12/18 12:19:20;;;;;;;1065.72;429.42;;;;;;;;;;4972191;28;20034;-83
2021/12/18 12:21:50;;;;;;;935.53;405.10;;;;;;;;;;4985759;28;20481;-84
2021/12/18 12:24:18;;;;;;;1177.38;452.60;;;;;;;;;;4971969;28;20515;-83
2021/12/18 12:26:44;;;;;;;1570.70;486.90;;;;;;;;;;4956008;28;20035;-81
2021/12/18 12:29:10;;;;;;;898.17;347.23;;;;;;;;;;4989735;28;20038;-80
2021/12/18 12:31:36;;;;;;;1008.45;257.52;;;;;;;;;;4980247;28;20498;-80
2021/12/18 12:34:33;;;;;;;1739.22;434.45;;;;;;;;;;4967184;28;20062;-82
2021/12/18 12:37:23;;;;;;;1429.47;552.17;;;;;;;;;;4982904;28;20038;-81
2021/12/18 12:39:54;;;;;;;1542.55;578.70;;;;;;;;;;4972671;28;20035;-84
2021/12/18 12:42:19;;;;;;;1109.25;523.75;;;;;;;;;;4929817;28;20038;-83
2021/12/18 12:44:55;;;;;;;1057.13;432.80;;;;;;;;;;4969205;28;20406;-85
2021/12/18 12:47:23;;;;;;;1999.90;544.95;;;;;;;;;;4960144;28;20488;-81
2021/12/18 12:49:53;;;;;;;915.60;300.67;;;;;;;;;;4971679;28;20482;-82
2021/12/18 12:52:20;;;;;;;1426.57;472.00;;;;;;;;;;4941877;28;20035;-81
2021/12/18 12:54:45;;;;;;;1703.18;480.60;;;;;;;;;;4953096;28;20042;-81
2021/12/18 12:57:23;;;;;;;1611.30;524.03;;;;;;;;;;4969292;28;20078;-80
2021/12/18 12:59:58;;;;;;;1512.43;471.88;;;;;;;;;;4973217;28;20038;-81
2021/12/18 13:02:27;;;;;;;1066.65;459.00;;;;;;;;;;4988530;28;20034;-80
2021/12/18 13:05:09;;;;;;;877.53;312.52;;;;;;;;;;4942148;28;20053;-79
2021/12/18 13:07:34;;;;;;;1999.90;428.25;;;;;;;;;;4958809;28;20035;-80
2021/12/18 13:10:00;;;;;;;1072.30;338.08;;;;;;;;;;4957494;28;20032;-80
2021/12/18 13:12:26;;;;;;;740.88;230.98;;;;;;;;;;4973612;28;20033;-80
2021/12/18 13:14:54;;;;;;;958.63;347.58;;;;;;;;;;4940150;28;20622;-80
2021/12/18 13:17:21;;;;;;;1901.65;489.80;;;;;;;;;;4943952;28;20489;-82
2021/12/18 13:20:01;;;;;;;1553.82;374.98;;;;;;;;;;4938991;28;20100;-83
2021/12/18 13:22:31;;;;;;;1848.65;424.48;;;;;;;;;;4941238;28;20039;-82
2021/12/18 13:25:07;;;;;;;1202.18;367.15;;;;;;;;;;4938935;28;20039;-82
2021/12/18 13:27:33;;;;;;;864.28;376.25;;;;;;;;;;4939155;28;20024;-84
2021/12/18 13:30:18;;;;;;;1448.53;368.35;;;;;;;;;;4953741;28;20039;-83
2021/12/18 13:32:54;;;;;;;1423.75;406.42;;;;;;;;;;4955421;28;20043;-81
2021/12/18 13:35:20;;;;;;;1873.40;377.15;;;;;;;;;;4972169;28;20092;-80
2021/12/18 13:38:11;;;;;;;1550.05;460.95;;;;;;;;;;4986131;28;20027;-81
2021/12/18 13:40:43;;;;;;;1445.90;428.65;;;;;;;;;;4953690;28;20077;-80
2021/12/18 13:43:14;;;;;;;1999.90;523.88;;;;;;;;;;4965026;28;20421;-80
2021/12/18 13:46:00;;;;;;;1476.70;423.13;;;;;;;;;;4967404;28;20049;-80
2021/12/18 13:48:29;;;;;;;1522.75;410.67;;;;;;;;;;4947288;28;20043;-80
2021/12/18 13:50:56;;;;;;;1476.07;388.27;;;;;;;;;;4939705;28;20059;-80
2021/12/18 13:53:22;;;;;;;1743.05;368.15;;;;;;;;;;4989010;28;20101;-80
2021/12/18 13:55:55;;;;;;;1167.95;266.02;;;;;;;;;;4983487;28;20518;-81
2021/12/18 13:58:26;;;;;;;1624.70;343.23;;;;;;;;;;4939713;28;20039;-80
2021/12/18 14:00:58;;;;;;;1556.55;411.50;;;;;;;;;;4976813;28;20050;-80
2021/12/18 14:03:46;;;;;;;1588.60;340.20;;;;;;;;;;4961351;28;20035;-80
2021/12/18 14:06:16;;;;;;;1359.50;369.30;;;;;;;;;;4952933;29;20027;-80
2021/12/18 14:08:43;;;;;;;1599.38;424.15;;;;;;;;;;4969152;28;20035;-81
2021/12/18 14:11:11;;;;;;;1566.45;395.10;;;;;;;;;;4937111;29;20031;-81
2021/12/18 14:13:51;;;;;;;1409.95;432.85;;;;;;;;;;4957320;28;20050;-80
2021/12/18 14:16:17;;;;;;;1101.38;339.13;;;;;;;;;;4937064;29;20039;-81
2021/12/18 14:18:49;;;;;;;1339.82;353.50;;;;;;;;;;4966668;28;20041;-80
2021/12/18 14:21:16;;;;;;;1261.50;299.30;;;;;;;;;;4952017;28;20050;-80
2021/12/18 14:23:44;;;;;;;1999.90;540.47;;;;;;;;;;4953958;28;20046;-81
2021/12/18 14:26:21;;;;;;;1618.10;388.58;;;;;;;;;;4988313;28;20113;-81
2021/12/18 14:28:48;;;;;;;1304.32;391.45;;;;;;;;;;4972155;28;20078;-81
2021/12/18 14:31:43;;;;;;;1354.90;440.13;;;;;;;;;;4951952;29;20039;-81
2021/12/18 14:34:10;;;;;;;1612.30;513.05;;;;;;;;;;4968701;28;20047;-82
2021/12/18 14:36:56;;;;;;;1950.35;504.27;;;;;;;;;;4952788;29;20043;-81